KTCL Airport (Tuscaloosa Rgnl) Information

FAA: TCL - ICAO: KTCL

KTCL Airport Location

State Alabama
County Tuscaloosa
City Tuscaloosa
KTCL Airport is 3 miles northwest of Tuscaloosa, AL.
Latitude 33-13-14.2591N
Longitude 087-36-41.0454W
Elevation 169ft

KTCL Airport METARs

METAR KTCL 071853Z 23008KT 10SM OVC037 25/18 A3023 RMK AO2 SLP234 T02500178
Altimeter 30.23"
Temperature 25.0°C (77.0°F)
Wind 230° at 8KT
Clouds overcast at 3,700ft
Visibility 10.0mi
Time observed: 2022-12-07T18:53:00Z

KTCL Airport Details

Status Operational
Activation April 1940
Ownership Public
Usage Public
Chart ATLANTA
ATC on-site Yes
Beacon schedule sunset-sunrise
Beacon color clear green

KTCL Airport Contacts

Owner CITY OF TUSCALOOSA
Owner address 7601 ROBERT CARDINAL AIRPORT ROAD, TUSCALOOSA, AL 35401
Owner phone (205) 248-5300
Manager TOMMY TURNER
Manager address 7601 ROBERT CARDINAL ARPT ROAD, STE 208, TUSCALOOSA, AL 35401
Manager phone 205-454-9939

KTCL Airport (Tuscaloosa Rgnl) Radio Frequencies

KTCL (Airport) Radio Frequencies

UNICOM 122.95
Common traffic advisory frequency (CTAF) 126.3